sensor_id;sensor_type;location;lat;lon;timestamp;temperature;humidity
19692;DHT22;42748;50.016;19.890;2023-04-01T00:01:52;10.60;99.90
19692;DHT22;42748;50.016;19.890;2023-04-01T00:04:20;10.60;99.90
19692;DHT22;42748;50.016;19.890;2023-04-01T00:06:47;10.60;99.90
19692;DHT22;42748;50.016;19.890;2023-04-01T00:09:15;10.60;99.90
19692;DHT22;42748;50.016;19.890;2023-04-01T00:11:42;10.60;99.90
19692;DHT22;42748;50.016;19.890;2023-04-01T00:14:09;10.50;99.90
19692;DHT22;42748;50.016;19.890;2023-04-01T00:16:37;10.50;99.90
19692;DHT22;42748;50.016;19.890;2023-04-01T00:19:04;10.50;99.90
19692;DHT22;42748;50.016;19.890;2023-04-01T00:21:32;10.50;99.90
19692;DHT22;42748;50.016;19.890;2023-04-01T00:23:59;10.50;99.90
19692;DHT22;42748;50.016;19.890;2023-04-01T00:26:27;10.50;99.90
19692;DHT22;42748;50.016;19.890;2023-04-01T00:28:54;10.50;99.90
19692;DHT22;42748;50.016;19.890;2023-04-01T00:31:21;10.50;99.90
19692;DHT22;42748;50.016;19.890;2023-04-01T00:33:49;10.40;99.90
19692;DHT22;42748;50.016;19.890;2023-04-01T00:36:19;10.40;99.90
19692;DHT22;42748;50.016;19.890;2023-04-01T00:38:46;10.40;99.90
19692;DHT22;42748;50.016;19.890;2023-04-01T00:41:14;10.40;99.90
19692;DHT22;42748;50.016;19.890;2023-04-01T00:43:45;10.40;99.90
19692;DHT22;42748;50.016;19.890;2023-04-01T00:46:13;10.40;99.90
19692;DHT22;42748;50.016;19.890;2023-04-01T00:48:45;10.30;99.90
19692;DHT22;42748;50.016;19.890;2023-04-01T00:51:17;10.30;99.90
19692;DHT22;42748;50.016;19.890;2023-04-01T00:53:48;10.30;99.90
19692;DHT22;42748;50.016;19.890;2023-04-01T00:56:20;10.30;99.90
19692;DHT22;42748;50.016;19.890;2023-04-01T00:58:54;10.30;99.90
19692;DHT22;42748;50.016;19.890;2023-04-01T01:01:24;10.30;99.90
19692;DHT22;42748;50.016;19.890;2023-04-01T01:03:51;10.30;99.90
19692;DHT22;42748;50.016;19.890;2023-04-01T01:11:35;10.20;99.90
19692;DHT22;42748;50.016;19.890;2023-04-01T01:17:45;10.20;99.90
19692;DHT22;42748;50.016;19.890;2023-04-01T01:20:33;10.10;99.90
19692;DHT22;42748;50.016;19.890;2023-04-01T01:31:24;10.20;99.90
19692;DHT22;42748;50.016;19.890;2023-04-01T01:36:43;10.30;99.90
19692;DHT22;42748;50.016;19.890;2023-04-01T01:39:13;10.20;99.90
19692;DHT22;42748;50.016;19.890;2023-04-01T01:41:43;10.20;99.90
19692;DHT22;42748;50.016;19.890;2023-04-01T01:44:12;10.20;99.90
19692;DHT22;42748;50.016;19.890;2023-04-01T01:46:42;10.20;99.90
19692;DHT22;42748;50.016;19.890;2023-04-01T01:49:11;10.20;99.90
19692;DHT22;42748;50.016;19.890;2023-04-01T01:51:40;10.20;99.90
19692;DHT22;42748;50.016;19.890;2023-04-01T01:54:17;10.20;99.90
19692;DHT22;42748;50.016;19.890;2023-04-01T01:56:46;10.20;99.90
19692;DHT22;42748;50.016;19.890;2023-04-01T01:59:16;10.10;99.90
19692;DHT22;42748;50.016;19.890;2023-04-01T02:01:48;10.20;99.90
19692;DHT22;42748;50.016;19.890;2023-04-01T02:04:17;10.20;99.90
19692;DHT22;42748;50.016;19.890;2023-04-01T02:06:56;10.20;99.90
19692;DHT22;42748;50.016;19.890;2023-04-01T02:09:24;10.20;99.90
19692;DHT22;42748;50.016;19.890;2023-04-01T02:14:30;10.10;99.90
19692;DHT22;42748;50.016;19.890;2023-04-01T02:17:05;10.10;99.90
19692;DHT22;42748;50.016;19.890;2023-04-01T02:19:39;10.10;99.90
19692;DHT22;42748;50.016;19.890;2023-04-01T02:22:11;10.10;99.90
19692;DHT22;42748;50.016;19.890;2023-04-01T02:24:41;10.10;99.90
19692;DHT22;42748;50.016;19.890;2023-04-01T02:27:10;10.10;99.90
19692;DHT22;42748;50.016;19.890;2023-04-01T02:29:38;10.00;99.90
19692;DHT22;42748;50.016;19.890;2023-04-01T02:32:07;10.00;99.90
19692;DHT22;42748;50.016;19.890;2023-04-01T02:34:36;10.00;99.90
19692;DHT22;42748;50.016;19.890;2023-04-01T02:37:04;10.00;99.90
19692;DHT22;42748;50.016;19.890;2023-04-01T02:39:31;10.00;99.90
19692;DHT22;42748;50.016;19.890;2023-04-01T02:41:59;10.00;99.90
19692;DHT22;42748;50.016;19.890;2023-04-01T02:44:28;10.00;99.90
19692;DHT22;42748;50.016;19.890;2023-04-01T02:46:55;10.00;99.90
19692;DHT22;42748;50.016;19.890;2023-04-01T02:49:22;10.00;99.90
19692;DHT22;42748;50.016;19.890;2023-04-01T02:51:50;10.00;99.90
19692;DHT22;42748;50.016;19.890;2023-04-01T02:54:19;10.00;99.90
19692;DHT22;42748;50.016;19.890;2023-04-01T02:56:46;10.00;99.90
19692;DHT22;42748;50.016;19.890;2023-04-01T02:59:13;10.00;99.90
19692;DHT22;42748;50.016;19.890;2023-04-01T03:01:41;10.00;99.90
19692;DHT22;42748;50.016;19.890;2023-04-01T03:04:08;9.90;99.90
19692;DHT22;42748;50.016;19.890;2023-04-01T03:06:35;9.90;99.90
19692;DHT22;42748;50.016;19.890;2023-04-01T03:09:02;9.90;99.90
19692;DHT22;42748;50.016;19.890;2023-04-01T03:11:30;9.90;99.90
19692;DHT22;42748;50.016;19.890;2023-04-01T03:13:57;9.90;99.90
19692;DHT22;42748;50.016;19.890;2023-04-01T03:16:24;9.90;99.90
19692;DHT22;42748;50.016;19.890;2023-04-01T03:18:51;9.90;99.90
19692;DHT22;42748;50.016;19.890;2023-04-01T03:21:22;9.80;99.90
19692;DHT22;42748;50.016;19.890;2023-04-01T03:23:50;9.80;99.90
19692;DHT22;42748;50.016;19.890;2023-04-01T03:26:18;9.80;99.90
19692;DHT22;42748;50.016;19.890;2023-04-01T03:28:45;9.80;99.90
19692;DHT22;42748;50.016;19.890;2023-04-01T03:31:13;9.80;99.90
19692;DHT22;42748;50.016;19.890;2023-04-01T03:33:47;9.80;99.90
19692;DHT22;42748;50.016;19.890;2023-04-01T03:36:14;9.80;99.90
19692;DHT22;42748;50.016;19.890;2023-04-01T03:38:42;9.80;99.90
19692;DHT22;42748;50.016;19.890;2023-04-01T03:41:13;9.80;99.90
19692;DHT22;42748;50.016;19.890;2023-04-01T03:43:43;9.80;99.90
19692;DHT22;42748;50.016;19.890;2023-04-01T03:46:11;9.80;99.90
19692;DHT22;42748;50.016;19.890;2023-04-01T03:48:38;9.80;99.90
19692;DHT22;42748;50.016;19.890;2023-04-01T03:51:09;9.70;99.90
19692;DHT22;42748;50.016;19.890;2023-04-01T03:53:36;9.70;99.90
19692;DHT22;42748;50.016;19.890;2023-04-01T03:56:06;9.80;99.90
19692;DHT22;42748;50.016;19.890;2023-04-01T03:58:35;9.80;99.90
19692;DHT22;42748;50.016;19.890;2023-04-01T04:01:17;9.80;99.90
19692;DHT22;42748;50.016;19.890;2023-04-01T04:03:46;9.80;99.90
19692;DHT22;42748;50.016;19.890;2023-04-01T04:06:14;9.80;99.90
19692;DHT22;42748;50.016;19.890;2023-04-01T04:08:42;9.90;99.90
19692;DHT22;42748;50.016;19.890;2023-04-01T04:11:09;9.90;99.90
19692;DHT22;42748;50.016;19.890;2023-04-01T04:13:40;9.90;99.90
19692;DHT22;42748;50.016;19.890;2023-04-01T04:16:09;9.90;99.90
19692;DHT22;42748;50.016;19.890;2023-04-01T04:18:40;9.90;99.90
19692;DHT22;42748;50.016;19.890;2023-04-01T04:21:14;9.90;99.90
19692;DHT22;42748;50.016;19.890;2023-04-01T04:23:42;9.90;99.90
19692;DHT22;42748;50.016;19.890;2023-04-01T04:26:13;10.00;99.90
19692;DHT22;42748;50.016;19.890;2023-04-01T04:28:44;10.00;99.90
19692;DHT22;42748;50.016;19.890;2023-04-01T04:31:21;10.00;99.90
19692;DHT22;42748;50.016;19.890;2023-04-01T04:33:50;10.00;99.90
19692;DHT22;42748;50.016;19.890;2023-04-01T04:36:18;10.00;99.90
19692;DHT22;42748;50.016;19.890;2023-04-01T04:38:48;10.00;99.90
19692;DHT22;42748;50.016;19.890;2023-04-01T04:41:17;10.10;99.90
19692;DHT22;42748;50.016;19.890;2023-04-01T04:43:50;10.00;99.90
19692;DHT22;42748;50.016;19.890;2023-04-01T04:46:18;10.00;99.90
19692;DHT22;42748;50.016;19.890;2023-04-01T04:48:48;10.00;99.90
19692;DHT22;42748;50.016;19.890;2023-04-01T04:51:17;10.00;99.90
19692;DHT22;42748;50.016;19.890;2023-04-01T04:53:45;10.10;99.90
19692;DHT22;42748;50.016;19.890;2023-04-01T04:56:16;10.00;99.90
19692;DHT22;42748;50.016;19.890;2023-04-01T04:58:50;10.00;99.90
19692;DHT22;42748;50.016;19.890;2023-04-01T05:01:22;10.10;99.90
19692;DHT22;42748;50.016;19.890;2023-04-01T05:03:50;10.00;99.90
19692;DHT22;42748;50.016;19.890;2023-04-01T05:06:19;10.10;99.90
19692;DHT22;42748;50.016;19.890;2023-04-01T05:08:49;10.00;99.90
19692;DHT22;42748;50.016;19.890;2023-04-01T05:11:19;10.00;99.90
19692;DHT22;42748;50.016;19.890;2023-04-01T05:13:48;10.10;99.90
19692;DHT22;42748;50.016;19.890;2023-04-01T05:16:18;10.10;99.90
19692;DHT22;42748;50.016;19.890;2023-04-01T05:18:46;10.10;99.90
19692;DHT22;42748;50.016;19.890;2023-04-01T05:21:15;10.20;99.90
19692;DHT22;42748;50.016;19.890;2023-04-01T05:23:43;10.10;99.90
19692;DHT22;42748;50.016;19.890;2023-04-01T05:26:12;10.20;99.90
19692;DHT22;42748;50.016;19.890;2023-04-01T05:28:40;10.20;99.90
19692;DHT22;42748;50.016;19.890;2023-04-01T05:31:08;10.20;99.90
19692;DHT22;42748;50.016;19.890;2023-04-01T05:33:40;10.30;99.90
19692;DHT22;42748;50.016;19.890;2023-04-01T05:36:12;10.40;99.90
19692;DHT22;42748;50.016;19.890;2023-04-01T05:38:40;10.50;99.90
19692;DHT22;42748;50.016;19.890;2023-04-01T05:41:11;10.60;99.90
19692;DHT22;42748;50.016;19.890;2023-04-01T05:43:43;10.50;99.90
19692;DHT22;42748;50.016;19.890;2023-04-01T05:46:31;10.50;99.90
19692;DHT22;42748;50.016;19.890;2023-04-01T05:49:18;10.50;99.90
19692;DHT22;42748;50.016;19.890;2023-04-01T05:51:47;10.40;99.90
19692;DHT22;42748;50.016;19.890;2023-04-01T05:54:14;10.40;99.90
19692;DHT22;42748;50.016;19.890;2023-04-01T05:56:43;10.40;99.90
19692;DHT22;42748;50.016;19.890;2023-04-01T05:59:13;10.40;99.90
19692;DHT22;42748;50.016;19.890;2023-04-01T06:01:41;10.30;99.90
19692;DHT22;42748;50.016;19.890;2023-04-01T06:04:16;10.30;99.90
19692;DHT22;42748;50.016;19.890;2023-04-01T06:06:45;10.40;99.90
19692;DHT22;42748;50.016;19.890;2023-04-01T06:09:16;10.40;99.90
19692;DHT22;42748;50.016;19.890;2023-04-01T06:20:01;10.70;99.90
19692;DHT22;42748;50.016;19.890;2023-04-01T06:31:11;11.00;99.90
19692;DHT22;42748;50.016;19.890;2023-04-01T06:45:03;12.00;99.90
19692;DHT22;42748;50.016;19.890;2023-04-01T06:48:29;12.70;99.90
19692;DHT22;42748;50.016;19.890;2023-04-01T06:51:43;13.10;99.90
19692;DHT22;42748;50.016;19.890;2023-04-01T06:54:38;13.00;99.90
19692;DHT22;42748;50.016;19.890;2023-04-01T06:57:30;12.50;99.90
19692;DHT22;42748;50.016;19.890;2023-04-01T07:00:01;12.10;99.90
19692;DHT22;42748;50.016;19.890;2023-04-01T07:02:41;12.30;99.90
19692;DHT22;42748;50.016;19.890;2023-04-01T07:05:11;12.20;99.90
19692;DHT22;42748;50.016;19.890;2023-04-01T07:07:43;12.30;99.90
19692;DHT22;42748;50.016;19.890;2023-04-01T07:10:50;12.30;99.90
19692;DHT22;42748;50.016;19.890;2023-04-01T07:18:57;12.70;99.90
19692;DHT22;42748;50.016;19.890;2023-04-01T07:21:48;12.70;99.90
19692;DHT22;42748;50.016;19.890;2023-04-01T07:24:47;13.00;99.90
19692;DHT22;42748;50.016;19.890;2023-04-01T07:27:15;13.00;99.90
19692;DHT22;42748;50.016;19.890;2023-04-01T07:29:44;13.20;99.90
19692;DHT22;42748;50.016;19.890;2023-04-01T07:35:42;13.20;99.90
19692;DHT22;42748;50.016;19.890;2023-04-01T07:41:34;12.90;99.90
19692;DHT22;42748;50.016;19.890;2023-04-01T07:46:51;12.80;99.90
19692;DHT22;42748;50.016;19.890;2023-04-01T07:52:40;13.00;99.90
19692;DHT22;42748;50.016;19.890;2023-04-01T07:55:46;13.20;99.90
19692;DHT22;42748;50.016;19.890;2023-04-01T08:04:13;12.50;99.90
19692;DHT22;42748;50.016;19.890;2023-04-01T08:06:45;12.60;99.90
19692;DHT22;42748;50.016;19.890;2023-04-01T08:09:27;12.80;99.90
19692;DHT22;42748;50.016;19.890;2023-04-01T08:15:28;12.90;99.90
19692;DHT22;42748;50.016;19.890;2023-04-01T08:23:26;13.60;99.90
19692;DHT22;42748;50.016;19.890;2023-04-01T08:29:04;13.20;99.90
19692;DHT22;42748;50.016;19.890;2023-04-01T08:31:42;13.30;99.90
19692;DHT22;42748;50.016;19.890;2023-04-01T08:34:19;13.30;99.90
19692;DHT22;42748;50.016;19.890;2023-04-01T08:37:06;13.00;99.90
19692;DHT22;42748;50.016;19.890;2023-04-01T08:39:53;13.80;99.90
19692;DHT22;42748;50.016;19.890;2023-04-01T08:45:38;13.90;99.90
19692;DHT22;42748;50.016;19.890;2023-04-01T08:48:36;13.40;99.90
19692;DHT22;42748;50.016;19.890;2023-04-01T08:56:21;15.00;99.90
19692;DHT22;42748;50.016;19.890;2023-04-01T09:08:01;16.30;99.90
19692;DHT22;42748;50.016;19.890;2023-04-01T09:10:43;16.20;99.90
19692;DHT22;42748;50.016;19.890;2023-04-01T09:14:06;15.90;99.90
19692;DHT22;42748;50.016;19.890;2023-04-01T09:17:01;15.50;99.90
19692;DHT22;42748;50.016;19.890;2023-04-01T09:22:37;14.90;99.90
19692;DHT22;42748;50.016;19.890;2023-04-01T09:38:29;13.80;99.90
19692;DHT22;42748;50.016;19.890;2023-04-01T09:44:23;14.20;99.90
19692;DHT22;42748;50.016;19.890;2023-04-01T09:53:15;14.30;99.90
19692;DHT22;42748;50.016;19.890;2023-04-01T10:21:47;12.30;99.90
19692;DHT22;42748;50.016;19.890;2023-04-01T10:36:18;12.30;99.90
19692;DHT22;42748;50.016;19.890;2023-04-01T10:48:40;12.60;99.90
19692;DHT22;42748;50.016;19.890;2023-04-01T11:16:21;12.80;99.90
19692;DHT22;42748;50.016;19.890;2023-04-01T11:24:49;13.00;99.90
19692;DHT22;42748;50.016;19.890;2023-04-01T11:33:47;14.10;99.90
19692;DHT22;42748;50.016;19.890;2023-04-01T11:43:12;13.80;99.90
19692;DHT22;42748;50.016;19.890;2023-04-01T11:46:25;13.60;99.90
19692;DHT22;42748;50.016;19.890;2023-04-01T11:49:05;13.40;99.90
19692;DHT22;42748;50.016;19.890;2023-04-01T11:52:15;12.90;99.90
19692;DHT22;42748;50.016;19.890;2023-04-01T11:59:52;12.40;99.90
19692;DHT22;42748;50.016;19.890;2023-04-01T12:05:46;12.70;99.90
19692;DHT22;42748;50.016;19.890;2023-04-01T12:08:25;12.90;99.90
19692;DHT22;42748;50.016;19.890;2023-04-01T12:13:43;13.10;99.90
19692;DHT22;42748;50.016;19.890;2023-04-01T12:22:11;13.00;99.90
19692;DHT22;42748;50.016;19.890;2023-04-01T12:24:44;12.90;99.90
19692;DHT22;42748;50.016;19.890;2023-04-01T12:27:33;13.00;99.90
19692;DHT22;42748;50.016;19.890;2023-04-01T12:47:46;13.30;99.90
19692;DHT22;42748;50.016;19.890;2023-04-01T13:02:12;12.50;99.90
19692;DHT22;42748;50.016;19.890;2023-04-01T13:04:56;12.60;99.90
19692;DHT22;42748;50.016;19.890;2023-04-01T13:21:12;13.10;99.90
19692;DHT22;42748;50.016;19.890;2023-04-01T13:26:17;13.00;99.90
19692;DHT22;42748;50.016;19.890;2023-04-01T13:29:18;13.00;99.90
19692;DHT22;42748;50.016;19.890;2023-04-01T13:46:06;12.10;99.90
19692;DHT22;42748;50.016;19.890;2023-04-01T13:51:46;11.90;99.90
19692;DHT22;42748;50.016;19.890;2023-04-01T14:22:03;12.40;99.90
19692;DHT22;42748;50.016;19.890;2023-04-01T14:24:49;12.40;99.90
19692;DHT22;42748;50.016;19.890;2023-04-01T14:27:45;12.50;99.90
19692;DHT22;42748;50.016;19.890;2023-04-01T14:33:12;12.40;99.90
19692;DHT22;42748;50.016;19.890;2023-04-01T14:49:55;11.90;99.90
19692;DHT22;42748;50.016;19.890;2023-04-01T14:52:36;12.00;99.90
19692;DHT22;42748;50.016;19.890;2023-04-01T14:55:28;12.10;99.90
19692;DHT22;42748;50.016;19.890;2023-04-01T14:58:04;12.00;99.90
19692;DHT22;42748;50.016;19.890;2023-04-01T15:09:42;12.10;99.90
19692;DHT22;42748;50.016;19.890;2023-04-01T15:26:56;12.10;99.90
19692;DHT22;42748;50.016;19.890;2023-04-01T15:32:17;12.10;99.90
19692;DHT22;42748;50.016;19.890;2023-04-01T15:43:36;11.40;99.90
19692;DHT22;42748;50.016;19.890;2023-04-01T15:59:53;11.00;99.90
19692;DHT22;42748;50.016;19.890;2023-04-01T16:05:20;10.90;99.90
19692;DHT22;42748;50.016;19.890;2023-04-01T16:22:44;10.70;99.90
19692;DHT22;42748;50.016;19.890;2023-04-01T16:25:26;10.70;99.90
19692;DHT22;42748;50.016;19.890;2023-04-01T16:36:24;10.60;99.90
19692;DHT22;42748;50.016;19.890;2023-04-01T16:39:11;10.60;99.90
19692;DHT22;42748;50.016;19.890;2023-04-01T16:45:19;10.50;99.90
19692;DHT22;42748;50.016;19.890;2023-04-01T16:47:54;10.50;99.90
19692;DHT22;42748;50.016;19.890;2023-04-01T16:50:24;10.50;99.90
19692;DHT22;42748;50.016;19.890;2023-04-01T17:01:29;10.40;99.90
19692;DHT22;42748;50.016;19.890;2023-04-01T17:04:07;10.40;99.90
19692;DHT22;42748;50.016;19.890;2023-04-01T17:07:11;10.30;99.90
19692;DHT22;42748;50.016;19.890;2023-04-01T17:10:04;10.20;99.90
19692;DHT22;42748;50.016;19.890;2023-04-01T17:12:49;10.10;99.90
19692;DHT22;42748;50.016;19.890;2023-04-01T17:23:57;9.90;99.90
19692;DHT22;42748;50.016;19.890;2023-04-01T17:26:43;9.90;99.90
19692;DHT22;42748;50.016;19.890;2023-04-01T17:35:16;9.80;99.90
19692;DHT22;42748;50.016;19.890;2023-04-01T17:45:55;9.70;99.90
19692;DHT22;42748;50.016;19.890;2023-04-01T17:48:38;9.80;99.90
19692;DHT22;42748;50.016;19.890;2023-04-01T18:04:36;9.80;99.90
19692;DHT22;42748;50.016;19.890;2023-04-01T18:07:22;9.90;99.90
19692;DHT22;42748;50.016;19.890;2023-04-01T18:15:31;9.90;99.90
19692;DHT22;42748;50.016;19.890;2023-04-01T18:20:57;9.90;99.90
19692;DHT22;42748;50.016;19.890;2023-04-01T18:23:43;9.90;99.90
19692;DHT22;42748;50.016;19.890;2023-04-01T18:26:35;9.90;99.90
19692;DHT22;42748;50.016;19.890;2023-04-01T18:31:49;9.90;99.90
19692;DHT22;42748;50.016;19.890;2023-04-01T18:34:56;9.90;99.90
19692;DHT22;42748;50.016;19.890;2023-04-01T18:37:32;9.90;99.90
19692;DHT22;42748;50.016;19.890;2023-04-01T18:46:22;9.80;99.90
19692;DHT22;42748;50.016;19.890;2023-04-01T18:49:30;9.90;99.90
19692;DHT22;42748;50.016;19.890;2023-04-01T18:52:21;9.90;99.90
19692;DHT22;42748;50.016;19.890;2023-04-01T19:03:01;9.80;99.90
19692;DHT22;42748;50.016;19.890;2023-04-01T19:05:34;9.80;99.90
19692;DHT22;42748;50.016;19.890;2023-04-01T19:11:09;9.70;99.90
19692;DHT22;42748;50.016;19.890;2023-04-01T19:19:25;9.60;99.90
19692;DHT22;42748;50.016;19.890;2023-04-01T19:21:58;9.60;99.90
19692;DHT22;42748;50.016;19.890;2023-04-01T19:25:13;9.60;99.90
19692;DHT22;42748;50.016;19.890;2023-04-01T19:27:50;9.50;99.90
19692;DHT22;42748;50.016;19.890;2023-04-01T19:30:46;9.50;99.90
19692;DHT22;42748;50.016;19.890;2023-04-01T19:41:40;9.40;99.90
19692;DHT22;42748;50.016;19.890;2023-04-01T19:44:35;9.40;99.90
19692;DHT22;42748;50.016;19.890;2023-04-01T19:50:44;9.40;99.90
19692;DHT22;42748;50.016;19.890;2023-04-01T19:56:23;9.30;99.90
19692;DHT22;42748;50.016;19.890;2023-04-01T20:01:40;9.40;99.90
19692;DHT22;42748;50.016;19.890;2023-04-01T20:04:17;9.30;99.90
19692;DHT22;42748;50.016;19.890;2023-04-01T20:18:27;9.30;99.90
19692;DHT22;42748;50.016;19.890;2023-04-01T20:21:03;9.30;99.90
19692;DHT22;42748;50.016;19.890;2023-04-01T20:26:12;9.30;99.90
19692;DHT22;42748;50.016;19.890;2023-04-01T20:29:12;9.30;99.90
19692;DHT22;42748;50.016;19.890;2023-04-01T20:31:43;9.30;99.90
19692;DHT22;42748;50.016;19.890;2023-04-01T20:34:26;9.30;99.90
19692;DHT22;42748;50.016;19.890;2023-04-01T20:40:14;9.30;99.90
19692;DHT22;42748;50.016;19.890;2023-04-01T20:45:51;9.30;99.90
19692;DHT22;42748;50.016;19.890;2023-04-01T20:51:37;9.30;99.90
19692;DHT22;42748;50.016;19.890;2023-04-01T20:54:30;9.30;99.90
19692;DHT22;42748;50.016;19.890;2023-04-01T21:13:47;9.20;99.90
19692;DHT22;42748;50.016;19.890;2023-04-01T21:30:43;9.30;99.90
19692;DHT22;42748;50.016;19.890;2023-04-01T21:40:54;9.20;99.90
19692;DHT22;42748;50.016;19.890;2023-04-01T21:57:00;9.10;99.90
19692;DHT22;42748;50.016;19.890;2023-04-01T22:04:59;9.10;99.90
19692;DHT22;42748;50.016;19.890;2023-04-01T22:07:54;9.10;99.90
19692;DHT22;42748;50.016;19.890;2023-04-01T22:13:06;9.10;99.90
19692;DHT22;42748;50.016;19.890;2023-04-01T22:21:27;9.10;99.90
19692;DHT22;42748;50.016;19.890;2023-04-01T22:32:15;9.10;99.90
19692;DHT22;42748;50.016;19.890;2023-04-01T22:34:54;9.10;99.90
19692;DHT22;42748;50.016;19.890;2023-04-01T22:40:14;9.00;99.90
19692;DHT22;42748;50.016;19.890;2023-04-01T23:02:03;9.00;99.90
19692;DHT22;42748;50.016;19.890;2023-04-01T23:04:38;9.00;99.90
19692;DHT22;42748;50.016;19.890;2023-04-01T23:07:37;9.00;99.90
19692;DHT22;42748;50.016;19.890;2023-04-01T23:10:22;9.10;99.90
19692;DHT22;42748;50.016;19.890;2023-04-01T23:12:52;9.10;99.90
19692;DHT22;42748;50.016;19.890;2023-04-01T23:15:21;9.10;99.90
19692;DHT22;42748;50.016;19.890;2023-04-01T23:21:09;9.00;99.90
19692;DHT22;42748;50.016;19.890;2023-04-01T23:26:50;9.00;99.90
19692;DHT22;42748;50.016;19.890;2023-04-01T23:29:20;9.00;99.90
19692;DHT22;42748;50.016;19.890;2023-04-01T23:31:56;9.00;99.90
19692;DHT22;42748;50.016;19.890;2023-04-01T23:34:31;9.00;99.90
19692;DHT22;42748;50.016;19.890;2023-04-01T23:37:05;9.00;99.90
19692;DHT22;42748;50.016;19.890;2023-04-01T23:39:41;9.00;99.90
19692;DHT22;42748;50.016;19.890;2023-04-01T23:44:42;9.00;99.90
19692;DHT22;42748;50.016;19.890;2023-04-01T23:47:16;9.00;99.90
19692;DHT22;42748;50.016;19.890;2023-04-01T23:49:54;9.00;99.90
19692;DHT22;42748;50.016;19.890;2023-04-01T23:52:45;9.00;99.90
19692;DHT22;42748;50.016;19.890;2023-04-01T23:55:18;9.00;99.90
19692;DHT22;42748;50.016;19.890;2023-04-01T23:58:17;8.90;99.90
